Time;durP1;ratioP1;P1;durP2;ratioP2;P2;SDS_P1;SDS_P2;PMS_P1;PMS_P2;Temp;Humidity;BMP_temperature;BMP_pressure;BME280_temperature;BME280_humidity;BME280_pressure;Samples;Min_cycle;Max_cycle;Signal;HPM_P1;HPM_P2
2024/04/09 00:02:07;;;;;;;18.90;4.80;;;;;;;15.78;nan;99606.63;5548437;26;20078;-71
2024/04/09 00:04:37;;;;;;;14.48;4.82;;;;;;;15.84;nan;99593.00;5548870;26;20019;-72
2024/04/09 00:07:08;;;;;;;15.88;5.00;;;;;;;15.81;nan;99589.75;5548143;26;20020;-72
2024/04/09 00:09:42;;;;;;;18.02;5.35;;;;;;;15.86;nan;99590.28;5511260;26;20073;-69
2024/04/09 00:12:12;;;;;;;17.92;5.03;;;;;;;15.90;nan;99587.28;5547241;26;20012;-71
2024/04/09 00:14:47;;;;;;;16.88;5.30;;;;;;;15.94;nan;99586.13;5545546;26;20471;-71
2024/04/09 00:17:19;;;;;;;13.40;5.05;;;;;;;16.00;nan;99583.03;5545526;26;20000;-70
2024/04/09 00:19:49;;;;;;;16.48;5.32;;;;;;;16.10;nan;99591.09;5547085;26;20005;-73
2024/04/09 00:22:19;;;;;;;13.68;4.90;;;;;;;16.12;nan;99587.41;5548176;26;20427;-72
2024/04/09 00:24:52;;;;;;;15.63;4.78;;;;;;;16.13;nan;99582.97;5545868;26;20227;-73
2024/04/09 00:27:22;;;;;;;16.38;5.47;;;;;;;16.18;nan;99571.13;5516023;26;19996;-73
2024/04/09 00:29:52;;;;;;;15.30;4.85;;;;;;;16.23;nan;99576.06;5517104;26;20429;-72
2024/04/09 00:32:23;;;;;;;11.75;4.50;;;;;;;16.23;nan;99576.88;5545036;26;20004;-73
2024/04/09 00:34:53;;;;;;;13.48;3.83;;;;;;;16.03;nan;99577.53;5545276;26;20456;-73
2024/04/09 00:37:24;;;;;;;14.60;4.07;;;;;;;15.97;nan;99587.69;5547147;26;20006;-70
2024/04/09 00:39:54;;;;;;;17.27;4.90;;;;;;;15.97;nan;99583.25;5543116;26;20003;-72
2024/04/09 00:42:24;;;;;;;10.73;3.78;;;;;;;16.14;nan;99584.63;5546211;26;20736;-70
2024/04/09 00:44:55;;;;;;;10.35;4.15;;;;;;;15.85;nan;99578.88;5545357;26;20286;-72
2024/04/09 00:47:25;;;;;;;14.63;3.90;;;;;;;15.87;nan;99582.22;5548150;26;19996;-71
2024/04/09 00:49:55;;;;;;;12.43;4.00;;;;;;;15.87;nan;99587.50;5546388;26;20447;-74
2024/04/09 00:52:26;;;;;;;14.90;3.88;;;;;;;15.79;nan;99589.88;5528121;26;20513;-72
2024/04/09 00:54:57;;;;;;;16.33;3.92;;;;;;;15.74;nan;99591.97;5539120;26;20351;-71
2024/04/09 00:57:29;;;;;;;12.15;3.67;;;;;;;15.67;nan;99597.81;5545459;26;20004;-72
2024/04/09 00:59:59;;;;;;;13.27;4.03;;;;;;;15.54;nan;99589.94;5545441;26;20610;-72
2024/04/09 01:02:29;;;;;;;10.25;3.97;;;;;;;15.53;nan;99582.97;5548029;26;20015;-73
2024/04/09 01:05:00;;;;;;;15.80;3.92;;;;;;;15.47;nan;99591.34;5545876;26;20467;-72
2024/04/09 01:07:32;;;;;;;15.60;4.80;;;;;;;15.60;nan;99589.50;5546837;26;19996;-72
2024/04/09 01:10:04;;;;;;;15.85;4.75;;;;;;;15.62;nan;99590.25;5542018;26;20089;-73
2024/04/09 01:12:35;;;;;;;19.75;5.00;;;;;;;15.79;nan;99583.75;5545632;26;20003;-73
2024/04/09 01:15:05;;;;;;;19.63;4.78;;;;;;;15.87;nan;99584.88;5546942;26;19997;-72
2024/04/09 01:17:36;;;;;;;19.23;4.90;;;;;;;16.10;nan;99581.41;5551164;26;20000;-73
2024/04/09 01:20:07;;;;;;;17.08;4.95;;;;;;;16.05;nan;99583.53;5550537;26;20868;-73
2024/04/09 01:22:37;;;;;;;22.30;4.78;;;;;;;16.15;nan;99587.19;5547199;26;20000;-72
2024/04/09 01:25:10;;;;;;;22.35;5.28;;;;;;;16.15;nan;99576.63;5549679;26;20623;-73
2024/04/09 01:27:40;;;;;;;21.27;5.18;;;;;;;16.26;nan;99587.25;5535104;26;20004;-70
2024/04/09 01:30:12;;;;;;;18.80;4.93;;;;;;;16.28;nan;99577.41;5551271;26;20486;-72
2024/04/09 01:32:44;;;;;;;18.27;4.85;;;;;;;16.26;nan;99581.09;5535352;26;20019;-70
2024/04/09 01:35:14;;;;;;;24.05;4.43;;;;;;;16.28;nan;99577.41;5540699;26;20670;-72
2024/04/09 01:37:45;;;;;;;21.85;4.93;;;;;;;16.31;nan;99574.53;5545999;26;20004;-73
2024/04/09 01:40:15;;;;;;;22.92;4.90;;;;;;;16.38;nan;99578.41;5544644;26;20000;-72
2024/04/09 01:42:45;;;;;;;15.13;4.38;;;;;;;16.52;nan;99570.31;5538882;26;19997;-72
2024/04/09 01:45:15;;;;;;;25.95;4.63;;;;;;;16.63;nan;99562.44;5548190;26;20000;-72
2024/04/09 01:47:46;;;;;;;19.17;4.40;;;;;;;16.68;nan;99569.97;5543653;26;20054;-73
2024/04/09 01:50:16;;;;;;;17.70;4.13;;;;;;;16.76;nan;99562.34;5541812;26;19996;-73
2024/04/09 01:52:48;;;;;;;20.83;4.40;;;;;;;16.67;nan;99557.75;5537368;26;20386;-73
2024/04/09 01:55:18;;;;;;;19.80;4.40;;;;;;;16.65;nan;99564.94;5544947;26;20046;-72
2024/04/09 01:57:49;;;;;;;19.40;4.20;;;;;;;16.67;nan;99569.16;5542594;26;20004;-73
2024/04/09 02:00:24;;;;;;;17.70;4.47;;;;;;;16.74;nan;99577.44;5545832;26;20484;-73
2024/04/09 02:02:54;;;;;;;16.50;4.53;;;;;;;16.77;nan;99580.69;5542314;26;20014;-73
2024/04/09 02:05:26;;;;;;;23.88;4.85;;;;;;;16.77;nan;99578.06;5544700;26;20370;-73
2024/04/09 02:07:57;;;;;;;24.60;3.92;;;;;;;16.74;nan;99578.28;5536912;26;20029;-73
2024/04/09 02:10:28;;;;;;;25.10;4.25;;;;;;;16.79;nan;99569.06;5548671;26;20362;-73
2024/04/09 02:12:58;;;;;;;19.55;4.10;;;;;;;16.85;nan;99562.47;5537849;26;20446;-72
2024/04/09 02:15:29;;;;;;;17.90;4.40;;;;;;;16.80;nan;99560.16;5538341;26;19996;-70
2024/04/09 02:18:01;;;;;;;20.52;4.20;;;;;;;16.75;nan;99548.28;5544619;26;20366;-71
2024/04/09 02:20:31;;;;;;;17.67;4.15;;;;;;;16.93;nan;99554.78;5545248;26;20041;-72
2024/04/09 02:23:03;;;;;;;26.13;4.50;;;;;;;16.91;nan;99556.69;5546542;26;20463;-73
2024/04/09 02:25:34;;;;;;;18.63;4.13;;;;;;;16.86;nan;99553.59;5543547;26;20349;-73
2024/04/09 02:28:04;;;;;;;19.02;4.40;;;;;;;16.96;nan;99557.22;5515171;26;20001;-70
2024/04/09 02:30:34;;;;;;;19.45;4.18;;;;;;;16.96;nan;99554.56;5543201;26;20011;-73
2024/04/09 02:33:05;;;;;;;19.10;4.30;;;;;;;16.86;nan;99545.66;5543081;26;20020;-71
2024/04/09 02:35:35;;;;;;;19.40;4.10;;;;;;;16.92;nan;99548.69;5541118;26;19996;-72
2024/04/09 02:38:05;;;;;;;19.45;4.30;;;;;;;17.19;nan;99550.97;5542308;26;20001;-73
2024/04/09 02:40:35;;;;;;;24.20;4.65;;;;;;;16.98;nan;99555.28;5546775;26;20015;-73
2024/04/09 02:43:07;;;;;;;18.95;4.32;;;;;;;16.89;nan;99555.97;5541020;26;20363;-72
2024/04/09 02:45:37;;;;;;;23.90;5.00;;;;;;;16.70;nan;99547.81;5539595;26;20000;-73
2024/04/09 02:48:08;;;;;;;24.10;4.80;;;;;;;16.63;nan;99545.75;5516636;26;20011;-72
2024/04/09 02:50:38;;;;;;;16.95;4.38;;;;;;;16.55;nan;99543.69;5543838;26;20078;-72
2024/04/09 02:53:09;;;;;;;25.17;5.13;;;;;;;16.55;nan;99543.69;5540417;26;20019;-70
2024/04/09 02:55:39;;;;;;;19.50;5.05;;;;;;;16.49;nan;99553.88;5541773;26;20000;-72
2024/04/09 02:58:12;;;;;;;24.42;4.95;;;;;;;16.54;nan;99554.38;5546754;26;20004;-72
2024/04/09 03:00:42;;;;;;;19.98;4.55;;;;;;;16.57;nan;99562.88;5544095;26;20000;-71
2024/04/09 03:03:12;;;;;;;23.45;4.97;;;;;;;16.58;nan;99558.47;5544353;26;20007;-73
2024/04/09 03:05:42;;;;;;;25.80;5.22;;;;;;;16.57;nan;99547.06;5546228;26;20022;-69
2024/04/09 03:08:13;;;;;;;22.17;4.95;;;;;;;16.60;nan;99538.06;5546396;26;19996;-73
2024/04/09 03:10:43;;;;;;;20.92;4.75;;;;;;;16.69;nan;99561.97;5544909;26;20018;-70
2024/04/09 03:13:13;;;;;;;21.33;4.18;;;;;;;16.74;nan;99580.09;5544748;26;20648;-72
2024/04/09 03:15:44;;;;;;;30.02;4.90;;;;;;;16.76;nan;99589.53;5546190;26;20578;-71
2024/04/09 03:18:14;;;;;;;27.48;4.80;;;;;;;16.79;nan;99573.50;5549910;26;20263;-73
2024/04/09 03:20:44;;;;;;;24.98;4.43;;;;;;;16.82;nan;99583.81;5542155;26;20073;-70
2024/04/09 03:23:15;;;;;;;24.80;4.45;;;;;;;16.80;nan;99580.47;5547053;26;20443;-72
2024/04/09 03:25:47;;;;;;;22.73;4.72;;;;;;;16.81;nan;99582.97;5543580;26;19997;-70
2024/04/09 03:28:17;;;;;;;21.17;4.75;;;;;;;16.86;nan;99579.97;5542420;26;20004;-73
2024/04/09 03:30:57;;;;;;;21.60;4.55;;;;;;;16.96;nan;99567.78;5544125;26;20019;-72
2024/04/09 03:33:28;;;;;;;25.13;5.00;;;;;;;16.90;nan;99569.06;5548867;26;19997;-72
2024/04/09 03:35:59;;;;;;;20.08;4.40;;;;;;;17.01;nan;99565.59;5542541;26;20009;-73
2024/04/09 03:38:30;;;;;;;21.58;4.15;;;;;;;17.03;nan;99574.25;5549793;26;20000;-73
2024/04/09 03:41:02;;;;;;;21.77;4.68;;;;;;;17.12;nan;99570.91;5548212;26;19999;-73
2024/04/09 03:43:33;;;;;;;26.20;4.53;;;;;;;17.22;nan;99556.00;5548198;26;20012;-74
2024/04/09 03:46:08;;;;;;;20.70;4.63;;;;;;;17.04;nan;99563.56;5547524;26;20077;-73
2024/04/09 03:48:42;;;;;;;24.15;5.03;;;;;;;17.05;nan;99559.13;5545335;26;19992;-72
2024/04/09 03:51:14;;;;;;;25.05;4.65;;;;;;;16.98;nan;99539.44;5546587;26;20348;-73
2024/04/09 03:53:46;;;;;;;25.48;4.68;;;;;;;16.98;nan;99532.34;5545111;26;20008;-72
2024/04/09 03:56:16;;;;;;;23.40;4.80;;;;;;;17.07;nan;99536.94;5546921;26;20495;-72
2024/04/09 03:58:48;;;;;;;22.98;4.38;;;;;;;17.01;nan;99521.53;5515969;26;20052;-70
2024/04/09 04:01:18;;;;;;;25.83;4.80;;;;;;;17.21;nan;99530.56;5547820;26;20379;-73
2024/04/09 04:03:48;;;;;;;24.63;4.30;;;;;;;17.03;nan;99534.63;5545323;26;20007;-70
2024/04/09 04:06:19;;;;;;;26.02;4.80;;;;;;;17.01;nan;99524.19;5547347;26;20000;-71
2024/04/09 04:08:49;;;;;;;22.27;4.45;;;;;;;17.00;nan;99521.69;5516560;26;20085;-70
2024/04/09 04:11:20;;;;;;;29.77;4.72;;;;;;;16.94;nan;99524.81;5549149;26;20514;-72
2024/04/09 04:13:50;;;;;;;25.33;4.55;;;;;;;17.16;nan;99527.44;5546739;26;20020;-70
2024/04/09 04:16:21;;;;;;;21.15;4.45;;;;;;;17.08;nan;99522.75;5548140;26;20070;-71
2024/04/09 04:18:51;;;;;;;24.00;3.88;;;;;;;17.02;nan;99517.97;5545653;26;20023;-72
2024/04/09 04:21:23;;;;;;;23.50;4.47;;;;;;;17.01;nan;99505.72;5548726;26;20031;-73
2024/04/09 04:23:56;;;;;;;27.77;5.05;;;;;;;16.97;nan;99503.44;5544798;26;20041;-73
2024/04/09 04:26:26;;;;;;;25.92;4.72;;;;;;;17.01;nan;99489.03;5545827;26;19996;-73
2024/04/09 04:28:59;;;;;;;25.40;4.50;;;;;;;17.03;nan;99495.03;5546630;26;20003;-73
2024/04/09 04:31:29;;;;;;;20.88;4.32;;;;;;;17.03;nan;99502.97;5548352;26;20070;-73
2024/04/09 04:33:59;;;;;;;20.73;3.97;;;;;;;17.10;nan;99501.50;5545916;26;20891;-72
2024/04/09 04:36:31;;;;;;;26.15;4.55;;;;;;;16.98;nan;99495.41;5548363;26;19997;-72
2024/04/09 04:39:03;;;;;;;28.23;4.25;;;;;;;16.91;nan;99494.22;5547404;26;20482;-73
2024/04/09 04:41:33;;;;;;;17.75;4.15;;;;;;;16.94;nan;99490.50;5545094;26;20435;-73
2024/04/09 04:44:04;;;;;;;26.95;4.70;;;;;;;16.98;nan;99486.66;5542340;26;19996;-73
2024/04/09 04:46:35;;;;;;;23.58;4.45;;;;;;;17.12;nan;99491.69;5547785;26;20007;-74
2024/04/09 04:49:05;;;;;;;20.55;4.53;;;;;;;16.99;nan;99496.25;5537598;26;20005;-71
2024/04/09 04:51:35;;;;;;;19.23;4.30;;;;;;;17.00;nan;99503.19;5541793;26;20011;-72
2024/04/09 04:54:06;;;;;;;20.35;4.50;;;;;;;16.89;nan;99500.56;5544028;26;20004;-70
2024/04/09 04:56:36;;;;;;;20.52;5.00;;;;;;;16.87;nan;99484.88;5549205;26;20093;-72
2024/04/09 04:59:06;;;;;;;21.60;4.55;;;;;;;17.05;nan;99493.97;5549177;26;20343;-70
2024/04/09 05:01:36;;;;;;;28.27;4.68;;;;;;;16.94;nan;99496.59;5551576;26;19996;-73
2024/04/09 05:04:07;;;;;;;25.02;4.68;;;;;;;17.05;nan;99487.84;5549282;26;20473;-71
2024/04/09 05:06:37;;;;;;;20.02;4.50;;;;;;;16.92;nan;99479.19;5521035;26;19993;-72
2024/04/09 05:09:07;;;;;;;24.77;4.28;;;;;;;16.97;nan;99487.63;5545447;26;20014;-71
2024/04/09 05:11:39;;;;;;;21.67;4.32;;;;;;;16.89;nan;99487.34;5550923;26;20367;-73
2024/04/09 05:14:10;;;;;;;28.13;5.15;;;;;;;16.85;nan;99480.66;5516935;26;20090;-74
2024/04/09 05:16:40;;;;;;;23.23;4.78;;;;;;;16.82;nan;99473.81;5554332;26;20004;-72
2024/04/09 05:19:10;;;;;;;24.98;4.57;;;;;;;16.83;nan;99477.28;5565348;26;20000;-71
2024/04/09 05:21:41;;;;;;;21.67;4.15;;;;;;;16.93;nan;99470.31;5554752;26;20260;-73
2024/04/09 05:24:12;;;;;;;26.75;4.25;;;;;;;16.99;nan;99478.59;5550872;26;20000;-72
2024/04/09 05:26:42;;;;;;;25.48;4.78;;;;;;;17.11;nan;99490.84;5550646;26;20352;-70
2024/04/09 05:29:12;;;;;;;30.63;5.30;;;;;;;17.20;nan;99484.84;5538785;26;20000;-72
2024/04/09 05:31:43;;;;;;;23.70;5.05;;;;;;;17.13;nan;99486.25;5548180;26;20008;-70
2024/04/09 05:34:13;;;;;;;17.42;4.10;;;;;;;17.10;nan;99483.03;5540662;26;20465;-70
2024/04/09 05:36:43;;;;;;;19.83;4.32;;;;;;;17.06;nan;99481.59;5548466;26;20082;-71
2024/04/09 05:39:14;;;;;;;30.08;4.93;;;;;;;17.21;nan;99488.28;5549942;26;20362;-71
2024/04/09 05:41:44;;;;;;;20.27;4.45;;;;;;;17.26;nan;99483.47;5550582;26;20472;-72
2024/04/09 05:44:14;;;;;;;20.13;4.13;;;;;;;17.20;nan;99497.19;5543039;26;20020;-72
2024/04/09 05:46:45;;;;;;;25.50;4.93;;;;;;;17.33;nan;99487.31;5549783;26;20358;-72
2024/04/09 05:49:20;;;;;;;23.80;4.75;;;;;;;17.42;nan;99495.38;5546046;26;20444;-73
2024/04/09 05:51:50;;;;;;;24.92;4.72;;;;;;;17.65;nan;99494.34;5545580;26;20008;-70
2024/04/09 05:54:20;;;;;;;21.10;4.70;;;;;;;17.80;nan;99497.56;5548714;26;20006;-73
2024/04/09 05:56:51;;;;;;;22.48;4.40;;;;;;;17.86;nan;99497.03;5546746;26;20014;-72
2024/04/09 05:59:22;;;;;;;28.00;4.40;;;;;;;17.79;nan;99499.34;5549658;26;20004;-73
2024/04/09 06:01:56;;;;;;;25.27;4.47;;;;;;;18.09;nan;99495.97;5545545;26;19996;-73
2024/04/09 06:04:26;;;;;;;21.75;5.05;;;;;;;18.06;nan;99501.53;5544428;26;20094;-73
2024/04/09 06:06:57;;;;;;;20.00;4.38;;;;;;;18.04;nan;99506.94;5543042;26;20004;-72
2024/04/09 06:09:27;;;;;;;26.98;4.63;;;;;;;18.18;nan;99506.63;5542114;26;20011;-71
2024/04/09 06:11:58;;;;;;;18.52;4.18;;;;;;;18.07;nan;99514.63;5541197;26;20015;-70
2024/04/09 06:14:28;;;;;;;23.98;4.28;;;;;;;18.09;nan;99507.41;5514991;26;19996;-70
2024/04/09 06:16:58;;;;;;;29.45;4.85;;;;;;;18.08;nan;99513.66;5541793;26;20000;-70
2024/04/09 06:19:29;;;;;;;29.92;4.63;;;;;;;18.15;nan;99506.88;5545791;26;20000;-71
2024/04/09 06:21:59;;;;;;;29.88;4.60;;;;;;;18.23;nan;99507.09;5544097;26;20008;-73
2024/04/09 06:24:29;;;;;;;24.65;4.60;;;;;;;18.33;nan;99515.13;5549215;26;20311;-74
2024/04/09 06:26:59;;;;;;;24.95;4.75;;;;;;;18.33;nan;99515.13;5544599;26;20000;-73
2024/04/09 06:29:30;;;;;;;29.98;4.93;;;;;;;18.43;nan;99522.16;5548336;26;20016;-73
2024/04/09 06:32:01;;;;;;;24.85;5.10;;;;;;;18.66;nan;99517.59;5516382;26;20398;-72
2024/04/09 06:34:31;;;;;;;28.83;4.53;;;;;;;18.73;nan;99519.56;5548795;26;20426;-73
2024/04/09 06:37:01;;;;;;;31.77;4.45;;;;;;;18.85;nan;99534.38;5544102;26;20359;-72
2024/04/09 06:39:32;;;;;;;25.95;4.35;;;;;;;19.11;nan;99530.34;5550188;26;20402;-72
2024/04/09 06:42:03;;;;;;;25.42;4.38;;;;;;;19.34;nan;99545.94;5539234;26;20004;-72
2024/04/09 06:44:33;;;;;;;26.15;4.43;;;;;;;19.46;nan;99558.09;5544682;26;20355;-72
2024/04/09 06:47:03;;;;;;;28.58;4.55;;;;;;;19.72;nan;99566.41;5545010;26;20000;-73
2024/04/09 06:49:34;;;;;;;32.30;4.88;;;;;;;19.92;nan;99571.63;5544525;26;20000;-73
2024/04/09 06:52:04;;;;;;;26.90;4.35;;;;;;;19.99;nan;99571.91;5540872;26;20014;-72
2024/04/09 06:54:35;;;;;;;26.02;4.88;;;;;;;20.05;nan;99558.97;5515470;26;20004;-72
2024/04/09 06:57:05;;;;;;;20.95;4.18;;;;;;;20.17;nan;99565.81;5544659;26;20003;-73
2024/04/09 06:59:36;;;;;;;25.52;5.03;;;;;;;20.46;nan;99568.47;5546141;26;20012;-74
2024/04/09 07:02:08;;;;;;;24.08;4.53;;;;;;;21.07;nan;99571.44;5514976;26;20023;-73
2024/04/09 07:04:38;;;;;;;28.38;5.38;;;;;;;21.15;nan;99571.56;5544345;26;20591;-73
2024/04/09 07:07:08;;;;;;;37.60;5.70;;;;;;;21.13;nan;99573.53;5537194;26;20008;-72
2024/04/09 07:09:39;;;;;;;31.55;5.78;;;;;;;21.80;nan;99562.59;5542874;26;20011;-72
2024/04/09 07:12:09;;;;;;;28.88;5.70;;;;;;;22.15;nan;99566.16;5546029;26;19996;-72
2024/04/09 07:14:39;;;;;;;30.45;4.75;;;;;;;22.14;nan;99561.81;5544943;26;20000;-73
2024/04/09 07:17:10;;;;;;;27.13;5.43;;;;;;;21.96;nan;99568.94;5540381;26;20377;-73
2024/04/09 07:19:40;;;;;;;22.58;4.63;;;;;;;21.50;nan;99574.34;5518384;26;20000;-72
2024/04/09 07:22:10;;;;;;;25.55;5.40;;;;;;;21.37;nan;99583.66;5539723;26;20453;-73
2024/04/09 07:24:43;;;;;;;35.65;5.38;;;;;;;21.07;nan;99586.56;5546321;26;19996;-74
2024/04/09 07:27:13;;;;;;;29.45;4.90;;;;;;;21.29;nan;99610.13;5538436;26;20007;-73
2024/04/09 07:29:43;;;;;;;28.30;4.83;;;;;;;21.30;nan;99606.47;5547233;26;20004;-71
2024/04/09 07:32:14;;;;;;;26.15;5.28;;;;;;;21.41;nan;99603.66;5546078;26;20281;-73
2024/04/09 07:34:46;;;;;;;24.77;4.80;;;;;;;21.53;nan;99591.81;5544350;26;20103;-73
2024/04/09 07:37:16;;;;;;;28.65;4.90;;;;;;;21.64;nan;99594.34;5539303;26;20813;-73
2024/04/09 07:39:46;;;;;;;26.15;4.53;;;;;;;21.87;nan;99590.28;5540763;26;19992;-74
2024/04/09 07:42:17;;;;;;;20.30;4.03;;;;;;;21.46;nan;99606.69;5544607;26;20059;-73
2024/04/09 07:44:47;;;;;;;29.08;4.65;;;;;;;21.18;nan;99612.94;5557734;26;19996;-72
2024/04/09 07:47:20;;;;;;;23.00;4.80;;;;;;;20.69;nan;99643.22;5556710;26;20499;-73
2024/04/09 07:49:53;;;;;;;31.02;4.53;;;;;;;20.79;nan;99659.13;5557677;26;19996;-73
2024/04/09 07:52:23;;;;;;;26.05;4.35;;;;;;;20.81;nan;99667.81;5557263;26;20456;-72
2024/04/09 07:54:53;;;;;;;27.40;4.65;;;;;;;20.72;nan;99655.38;5542925;26;20000;-73
2024/04/09 07:57:24;;;;;;;21.65;4.25;;;;;;;20.80;nan;99660.81;5541293;26;20004;-72
2024/04/09 07:59:54;;;;;;;26.35;4.18;;;;;;;20.62;nan;99659.84;5538377;26;20595;-70
2024/04/09 08:02:25;;;;;;;20.88;4.55;;;;;;;20.58;nan;99657.59;5542868;26;20020;-72
2024/04/09 08:04:55;;;;;;;27.63;4.80;;;;;;;20.92;nan;99665.88;5549844;26;20378;-71
2024/04/09 08:07:26;;;;;;;22.90;4.40;;;;;;;21.67;nan;99668.50;5550172;26;20000;-73
2024/04/09 08:09:56;;;;;;;19.45;4.28;;;;;;;22.14;nan;99662.13;5510994;26;20342;-73
2024/04/09 08:12:27;;;;;;;24.90;4.40;;;;;;;22.57;nan;99662.28;5540259;26;20020;-74
2024/04/09 08:14:57;;;;;;;22.45;4.53;;;;;;;22.91;nan;99664.94;5546601;26;20261;-72
2024/04/09 08:17:27;;;;;;;19.23;3.93;;;;;;;23.23;nan;99662.50;5544465;26;20463;-71
2024/04/09 08:19:58;;;;;;;20.13;4.57;;;;;;;22.61;nan;99676.97;5542619;26;20223;-72
2024/04/09 08:22:29;;;;;;;20.63;4.22;;;;;;;23.06;nan;99684.69;5515372;26;20077;-74
2024/04/09 08:24:59;;;;;;;20.43;4.13;;;;;;;23.24;nan;99687.38;5513541;26;20472;-74
2024/04/09 08:27:33;;;;;;;19.27;3.58;;;;;;;22.47;nan;99685.47;5544095;26;20265;-73
2024/04/09 08:30:08;;;;;;;22.83;4.10;;;;;;;22.17;nan;99680.44;5545232;26;20012;-72
2024/04/09 08:32:39;;;;;;;21.85;3.83;;;;;;;21.89;nan;99689.44;5545747;26;20418;-72
2024/04/09 08:35:16;;;;;;;17.27;4.18;;;;;;;21.48;nan;99689.81;5541365;26;20004;-72
2024/04/09 08:37:47;;;;;;;22.50;4.13;;;;;;;21.24;nan;99681.50;5548187;26;20032;-73
2024/04/09 08:40:18;;;;;;;20.20;3.78;;;;;;;21.19;nan;99687.25;5549874;26;20506;-72
2024/04/09 08:42:53;;;;;;;23.63;4.30;;;;;;;21.37;nan;99682.03;5551051;26;20011;-72
2024/04/09 08:45:23;;;;;;;17.23;3.97;;;;;;;21.55;nan;99686.44;5547421;26;20364;-73
2024/04/09 08:47:55;;;;;;;22.98;4.22;;;;;;;21.72;nan;99687.56;5549783;26;20459;-73
2024/04/09 08:50:26;;;;;;;20.10;3.20;;;;;;;21.63;nan;99689.25;5546697;26;19997;-72
2024/04/09 08:52:58;;;;;;;17.13;2.90;;;;;;;21.54;nan;99703.38;5548749;26;20010;-70
2024/04/09 08:55:30;;;;;;;16.88;3.75;;;;;;;21.74;nan;99704.19;5544306;26;20357;-73
2024/04/09 08:58:01;;;;;;;13.25;2.97;;;;;;;21.81;nan;99703.47;5512160;26;20040;-73
2024/04/09 09:00:31;;;;;;;16.42;2.92;;;;;;;21.50;nan;99709.13;5545394;26;20000;-73
2024/04/09 09:03:01;;;;;;;12.68;2.78;;;;;;;21.64;nan;99701.59;5546311;26;20036;-73
2024/04/09 09:05:32;;;;;;;12.55;3.03;;;;;;;21.18;nan;99698.00;5545225;26;20004;-73
2024/04/09 09:08:04;;;;;;;13.27;3.20;;;;;;;21.11;nan;99731.44;5543189;26;20510;-73
2024/04/09 09:10:34;;;;;;;10.95;2.60;;;;;;;20.95;nan;99734.69;5542728;26;20467;-73
2024/04/09 09:13:05;;;;;;;16.88;3.08;;;;;;;21.17;nan;99725.56;5544831;26;20004;-73
2024/04/09 09:15:35;;;;;;;16.02;2.90;;;;;;;21.21;nan;99734.94;5544466;26;20370;-74
2024/04/09 09:18:05;;;;;;;16.75;2.95;;;;;;;20.73;nan;99734.09;5545603;26;20078;-73
2024/04/09 09:20:36;;;;;;;17.23;3.38;;;;;;;20.83;nan;99724.28;5541346;26;20012;-72
2024/04/09 09:23:06;;;;;;;11.40;2.65;;;;;;;20.87;nan;99728.41;5543932;26;20000;-73
2024/04/09 09:25:42;;;;;;;14.07;2.33;;;;;;;21.23;nan;99746.28;5518692;26;20517;-73
2024/04/09 09:28:12;;;;;;;10.30;2.83;;;;;;;20.85;nan;99759.53;5548433;26;20445;-72
2024/04/09 09:30:43;;;;;;;10.05;2.10;;;;;;;20.91;nan;99749.22;5520083;26;20004;-71
2024/04/09 09:33:24;;;;;;;11.90;2.55;;;;;;;21.30;nan;99766.00;5549127;26;20004;-72
2024/04/09 09:35:55;;;;;;;10.93;2.33;;;;;;;21.48;nan;99773.13;5545973;26;20015;-73
2024/04/09 09:38:26;;;;;;;13.65;2.60;;;;;;;21.43;nan;99777.19;5547051;26;20041;-74
2024/04/09 09:40:59;;;;;;;14.75;2.47;;;;;;;21.47;nan;99791.84;5551190;26;20000;-71
2024/04/09 09:43:31;;;;;;;17.48;2.60;;;;;;;21.20;nan;99789.09;5546207;26;20008;-71
2024/04/09 09:46:01;;;;;;;16.65;2.78;;;;;;;21.16;nan;99788.53;5549438;26;20004;-71
2024/04/09 09:48:32;;;;;;;17.70;2.90;;;;;;;21.07;nan;99789.34;5545967;26;20006;-72
2024/04/09 09:51:03;;;;;;;14.68;2.20;;;;;;;21.01;nan;99781.94;5549724;26;20064;-73
2024/04/09 09:53:34;;;;;;;10.32;2.80;;;;;;;20.94;nan;99785.28;5540520;26;19997;-72
2024/04/09 09:56:06;;;;;;;9.50;2.47;;;;;;;20.93;nan;99783.63;5547616;26;20069;-74
2024/04/09 09:58:38;;;;;;;12.32;2.30;;;;;;;21.23;nan;99796.78;5549186;26;20453;-73
2024/04/09 10:01:10;;;;;;;12.40;2.50;;;;;;;21.18;nan;99791.03;5518689;26;20011;-73
2024/04/09 10:03:41;;;;;;;21.45;2.58;;;;;;;20.81;nan;99801.47;5548406;26;20447;-73
2024/04/09 10:06:11;;;;;;;12.35;2.42;;;;;;;21.08;nan;99803.50;5549111;26;20087;-73
2024/04/09 10:08:42;;;;;;;11.20;2.67;;;;;;;20.89;nan;99804.31;5549565;26;20014;-73
2024/04/09 10:11:12;;;;;;;9.55;2.50;;;;;;;20.87;nan;99808.91;5548689;26;20006;-71
2024/04/09 10:13:50;;;;;;;13.05;2.33;;;;;;;20.78;nan;99800.91;5550258;26;20000;-70
2024/04/09 10:16:23;;;;;;;11.02;3.72;;;;;;;21.03;nan;99806.56;5542795;26;20000;-72
2024/04/09 10:18:57;;;;;;;11.43;2.58;;;;;;;21.26;nan;99820.44;5550506;26;20214;-72
2024/04/09 10:21:30;;;;;;;9.57;2.50;;;;;;;21.00;nan;99824.59;5550764;26;20418;-70
2024/04/09 10:24:04;;;;;;;12.20;2.30;;;;;;;21.04;nan;99826.00;5546414;26;20045;-71
2024/04/09 10:26:36;;;;;;;12.27;2.33;;;;;;;20.78;nan;99828.31;5548375;26;20417;-72
2024/04/09 10:29:06;;;;;;;10.43;2.80;;;;;;;20.97;nan;99817.75;5548443;26;20004;-72
2024/04/09 10:31:44;;;;;;;9.90;2.60;;;;;;;21.13;nan;99818.06;5513708;26;20027;-72
2024/04/09 10:34:26;;;;;;;11.48;2.65;;;;;;;21.05;nan;99844.47;5547634;26;20012;-70
2024/04/09 10:36:56;;;;;;;9.20;2.55;;;;;;;21.31;nan;99852.75;5543869;26;20020;-73
2024/04/09 10:39:27;;;;;;;12.55;3.03;;;;;;;21.14;nan;99861.41;5545758;26;20000;-73
2024/04/09 10:41:57;;;;;;;12.63;3.10;;;;;;;21.07;nan;99870.91;5549373;26;20000;-74
2024/04/09 10:44:28;;;;;;;11.82;3.10;;;;;;;20.89;nan;99864.59;5514570;26;20410;-74
2024/04/09 10:46:58;;;;;;;8.07;2.50;;;;;;;20.85;nan;99869.31;5549494;26;20004;-73
2024/04/09 10:49:29;;;;;;;8.25;3.00;;;;;;;20.66;nan;99871.03;5544489;26;20012;-72
2024/04/09 10:51:59;;;;;;;14.38;3.45;;;;;;;20.50;nan;99854.78;5549916;26;20114;-73
2024/04/09 10:54:30;;;;;;;13.38;3.42;;;;;;;20.67;nan;99855.97;5547435;26;20085;-73
2024/04/09 10:57:00;;;;;;;9.25;3.50;;;;;;;20.53;nan;99867.81;5548080;26;20061;-70
2024/04/09 10:59:31;;;;;;;8.40;3.45;;;;;;;20.57;nan;99881.63;5548611;26;20000;-73
2024/04/09 11:02:06;;;;;;;9.38;3.40;;;;;;;20.67;nan;99883.34;5548745;26;20004;-71
2024/04/09 11:04:37;;;;;;;;;;;;;;;20.94;nan;99884.47;5550396;26;20250;-73
2024/04/09 11:07:07;;;;;;;10.77;3.47;;;;;;;21.34;nan;99893.19;5546045;26;19941;-73
2024/04/09 11:09:38;;;;;;;12.73;3.58;;;;;;;21.30;nan;99898.91;5549089;26;20000;-72
2024/04/09 11:12:08;;;;;;;9.52;3.55;;;;;;;21.61;nan;99895.97;5547062;26;20019;-73
2024/04/09 11:14:38;;;;;;;8.50;3.35;;;;;;;21.72;nan;99879.91;5547583;26;20001;-74
2024/04/09 11:17:17;;;;;;;13.55;3.67;;;;;;;21.67;nan;99889.28;5546928;26;20065;-72
2024/04/09 11:19:47;;;;;;;8.35;3.40;;;;;;;21.60;nan;99896.13;5547585;26;20000;-73
2024/04/09 11:22:17;;;;;;;13.63;3.88;;;;;;;21.49;nan;99912.22;5549279;26;20352;-73
2024/04/09 11:24:48;;;;;;;11.40;3.67;;;;;;;21.17;nan;99911.63;5548240;26;20000;-73
2024/04/09 11:27:18;;;;;;;12.52;3.30;;;;;;;21.54;nan;99912.66;5545624;26;20513;-72
2024/04/09 11:29:48;;;;;;;11.93;3.38;;;;;;;21.21;nan;99910.41;5546768;26;20067;-73
2024/04/09 11:32:19;;;;;;;8.90;3.30;;;;;;;21.52;nan;99922.56;5513615;26;19992;-70
2024/04/09 11:34:49;;;;;;;12.07;3.55;;;;;;;21.75;nan;99930.19;5547994;26;20007;-72
2024/04/09 11:37:22;;;;;;;8.95;3.00;;;;;;;21.69;nan;99927.25;5546643;26;20000;-71
2024/04/09 11:39:52;;;;;;;11.23;3.78;;;;;;;21.94;nan;99919.53;5514616;26;20008;-73
2024/04/09 11:42:25;;;;;;;9.93;3.10;;;;;;;22.00;nan;99912.78;5518029;26;20001;-72
2024/04/09 11:44:59;;;;;;;8.52;3.40;;;;;;;22.31;nan;99927.59;5538317;26;20000;-73
2024/04/09 11:47:30;;;;;;;9.32;2.92;;;;;;;22.11;nan;99924.13;5543507;26;20004;-73
2024/04/09 11:50:00;;;;;;;13.55;3.33;;;;;;;21.96;nan;99936.22;5548601;26;20404;-72
2024/04/09 11:52:31;;;;;;;8.20;3.08;;;;;;;22.15;nan;99919.34;5545371;26;20004;-73
2024/04/09 11:55:01;;;;;;;11.95;3.20;;;;;;;22.11;nan;99929.44;5547173;26;20085;-72
2024/04/09 11:57:31;;;;;;;10.60;3.35;;;;;;;22.23;nan;99940.81;5516889;26;21222;-72
2024/04/09 12:00:02;;;;;;;8.73;3.17;;;;;;;22.07;nan;99948.53;5523920;26;20524;-72